sensor_id;sensor_type;location;lat;lon;timestamp;P1;durP1;ratioP1;P2;durP2;ratioP2
23416;SDS011;11881;42.432;25.632;2022-10-31T00:02:02;5.50;;;1.70;;
23416;SDS011;11881;42.432;25.632;2022-10-31T00:04:28;7.43;;;2.10;;
23416;SDS011;11881;42.432;25.632;2022-10-31T00:06:53;5.80;;;1.93;;
23416;SDS011;11881;42.432;25.632;2022-10-31T00:09:19;5.27;;;1.53;;
23416;SDS011;11881;42.432;25.632;2022-10-31T00:11:44;5.50;;;1.50;;
23416;SDS011;11881;42.432;25.632;2022-10-31T00:14:09;7.53;;;1.87;;
23416;SDS011;11881;42.432;25.632;2022-10-31T00:16:35;5.43;;;1.77;;
23416;SDS011;11881;42.432;25.632;2022-10-31T00:19:01;6.63;;;1.43;;
23416;SDS011;11881;42.432;25.632;2022-10-31T00:21:29;6.80;;;1.90;;
23416;SDS011;11881;42.432;25.632;2022-10-31T00:23:56;7.60;;;1.97;;
23416;SDS011;11881;42.432;25.632;2022-10-31T00:26:22;2.63;;;1.60;;
23416;SDS011;11881;42.432;25.632;2022-10-31T00:28:47;6.90;;;1.67;;
23416;SDS011;11881;42.432;25.632;2022-10-31T00:31:13;4.27;;;1.70;;
23416;SDS011;11881;42.432;25.632;2022-10-31T00:33:39;4.00;;;1.70;;
23416;SDS011;11881;42.432;25.632;2022-10-31T00:36:06;3.57;;;1.57;;
23416;SDS011;11881;42.432;25.632;2022-10-31T00:38:32;5.33;;;1.50;;
23416;SDS011;11881;42.432;25.632;2022-10-31T00:40:58;5.17;;;1.70;;
23416;SDS011;11881;42.432;25.632;2022-10-31T00:43:24;6.50;;;1.80;;
23416;SDS011;11881;42.432;25.632;2022-10-31T00:45:49;4.70;;;1.70;;
23416;SDS011;11881;42.432;25.632;2022-10-31T00:48:15;4.00;;;2.00;;
23416;SDS011;11881;42.432;25.632;2022-10-31T00:50:40;7.80;;;1.87;;
23416;SDS011;11881;42.432;25.632;2022-10-31T00:53:07;4.70;;;2.20;;
23416;SDS011;11881;42.432;25.632;2022-10-31T00:55:32;4.43;;;2.20;;
23416;SDS011;11881;42.432;25.632;2022-10-31T00:57:58;4.40;;;1.70;;
23416;SDS011;11881;42.432;25.632;2022-10-31T01:00:24;3.73;;;1.80;;
23416;SDS011;11881;42.432;25.632;2022-10-31T01:02:49;5.37;;;2.00;;
23416;SDS011;11881;42.432;25.632;2022-10-31T01:05:15;5.37;;;1.87;;
23416;SDS011;11881;42.432;25.632;2022-10-31T01:07:40;7.00;;;2.10;;
23416;SDS011;11881;42.432;25.632;2022-10-31T01:10:06;7.43;;;1.93;;
23416;SDS011;11881;42.432;25.632;2022-10-31T01:12:39;6.03;;;2.10;;
23416;SDS011;11881;42.432;25.632;2022-10-31T01:15:05;5.60;;;2.10;;
23416;SDS011;11881;42.432;25.632;2022-10-31T01:17:32;9.13;;;2.20;;
23416;SDS011;11881;42.432;25.632;2022-10-31T01:19:57;4.80;;;2.33;;
23416;SDS011;11881;42.432;25.632;2022-10-31T01:22:23;5.03;;;1.97;;
23416;SDS011;11881;42.432;25.632;2022-10-31T01:24:48;7.60;;;2.43;;
23416;SDS011;11881;42.432;25.632;2022-10-31T01:27:13;6.13;;;2.13;;
23416;SDS011;11881;42.432;25.632;2022-10-31T01:29:39;3.50;;;1.73;;
23416;SDS011;11881;42.432;25.632;2022-10-31T01:32:04;4.27;;;1.83;;
23416;SDS011;11881;42.432;25.632;2022-10-31T01:34:30;9.80;;;2.37;;
23416;SDS011;11881;42.432;25.632;2022-10-31T01:36:55;6.03;;;1.97;;
23416;SDS011;11881;42.432;25.632;2022-10-31T01:39:20;6.43;;;2.17;;
23416;SDS011;11881;42.432;25.632;2022-10-31T01:41:47;10.97;;;2.23;;
23416;SDS011;11881;42.432;25.632;2022-10-31T01:46:44;6.10;;;2.20;;
23416;SDS011;11881;42.432;25.632;2022-10-31T01:49:20;5.40;;;2.10;;
23416;SDS011;11881;42.432;25.632;2022-10-31T01:51:54;3.53;;;1.90;;
23416;SDS011;11881;42.432;25.632;2022-10-31T01:54:25;6.87;;;1.93;;
23416;SDS011;11881;42.432;25.632;2022-10-31T01:56:55;5.93;;;2.40;;
23416;SDS011;11881;42.432;25.632;2022-10-31T01:59:22;4.10;;;2.17;;
23416;SDS011;11881;42.432;25.632;2022-10-31T02:01:51;6.40;;;2.07;;
23416;SDS011;11881;42.432;25.632;2022-10-31T02:04:17;5.87;;;2.17;;
23416;SDS011;11881;42.432;25.632;2022-10-31T02:06:45;9.83;;;2.87;;
23416;SDS011;11881;42.432;25.632;2022-10-31T02:09:14;7.00;;;2.13;;
23416;SDS011;11881;42.432;25.632;2022-10-31T02:11:41;5.57;;;2.03;;
23416;SDS011;11881;42.432;25.632;2022-10-31T02:14:09;5.50;;;2.60;;
23416;SDS011;11881;42.432;25.632;2022-10-31T02:16:34;6.30;;;2.37;;
23416;SDS011;11881;42.432;25.632;2022-10-31T02:19:00;6.03;;;2.50;;
23416;SDS011;11881;42.432;25.632;2022-10-31T02:21:40;5.57;;;2.63;;
23416;SDS011;11881;42.432;25.632;2022-10-31T02:29:50;6.63;;;2.50;;
23416;SDS011;11881;42.432;25.632;2022-10-31T02:34:58;4.90;;;2.73;;
23416;SDS011;11881;42.432;25.632;2022-10-31T02:37:43;5.63;;;2.40;;
23416;SDS011;11881;42.432;25.632;2022-10-31T02:40:23;3.00;;;2.47;;
23416;SDS011;11881;42.432;25.632;2022-10-31T02:45:50;6.43;;;2.53;;
23416;SDS011;11881;42.432;25.632;2022-10-31T02:48:19;6.43;;;2.40;;
23416;SDS011;11881;42.432;25.632;2022-10-31T02:50:55;5.33;;;2.50;;
23416;SDS011;11881;42.432;25.632;2022-10-31T02:53:24;4.27;;;2.33;;
23416;SDS011;11881;42.432;25.632;2022-10-31T02:58:27;4.40;;;2.40;;
23416;SDS011;11881;42.432;25.632;2022-10-31T03:07:01;5.37;;;2.30;;
23416;SDS011;11881;42.432;25.632;2022-10-31T03:11:53;10.43;;;2.47;;
23416;SDS011;11881;42.432;25.632;2022-10-31T03:14:30;7.80;;;2.37;;
23416;SDS011;11881;42.432;25.632;2022-10-31T03:17:05;5.40;;;2.33;;
23416;SDS011;11881;42.432;25.632;2022-10-31T03:19:42;5.13;;;2.33;;
23416;SDS011;11881;42.432;25.632;2022-10-31T03:22:23;8.30;;;2.70;;
23416;SDS011;11881;42.432;25.632;2022-10-31T03:24:52;12.00;;;3.07;;
23416;SDS011;11881;42.432;25.632;2022-10-31T03:27:24;8.03;;;2.47;;
23416;SDS011;11881;42.432;25.632;2022-10-31T03:29:55;6.80;;;2.23;;
23416;SDS011;11881;42.432;25.632;2022-10-31T03:32:24;7.53;;;2.40;;
23416;SDS011;11881;42.432;25.632;2022-10-31T03:34:55;5.43;;;2.23;;
23416;SDS011;11881;42.432;25.632;2022-10-31T03:37:24;10.50;;;2.57;;
23416;SDS011;11881;42.432;25.632;2022-10-31T03:39:52;6.67;;;2.10;;
23416;SDS011;11881;42.432;25.632;2022-10-31T03:42:23;5.97;;;2.30;;
23416;SDS011;11881;42.432;25.632;2022-10-31T03:45:11;7.13;;;2.10;;
23416;SDS011;11881;42.432;25.632;2022-10-31T03:47:38;7.90;;;2.67;;
23416;SDS011;11881;42.432;25.632;2022-10-31T03:50:07;5.53;;;2.07;;
23416;SDS011;11881;42.432;25.632;2022-10-31T03:52:39;2.60;;;1.77;;
23416;SDS011;11881;42.432;25.632;2022-10-31T03:55:19;4.07;;;2.20;;
23416;SDS011;11881;42.432;25.632;2022-10-31T04:00:23;9.67;;;2.70;;
23416;SDS011;11881;42.432;25.632;2022-10-31T04:02:53;7.13;;;2.40;;
23416;SDS011;11881;42.432;25.632;2022-10-31T04:05:20;7.80;;;2.63;;
23416;SDS011;11881;42.432;25.632;2022-10-31T04:07:47;9.00;;;2.80;;
23416;SDS011;11881;42.432;25.632;2022-10-31T04:10:17;6.73;;;2.63;;
23416;SDS011;11881;42.432;25.632;2022-10-31T04:12:44;6.53;;;2.47;;
23416;SDS011;11881;42.432;25.632;2022-10-31T04:15:16;10.23;;;2.43;;
23416;SDS011;11881;42.432;25.632;2022-10-31T04:17:42;6.57;;;2.50;;
23416;SDS011;11881;42.432;25.632;2022-10-31T04:20:10;11.30;;;2.60;;
23416;SDS011;11881;42.432;25.632;2022-10-31T04:22:40;9.47;;;2.20;;
23416;SDS011;11881;42.432;25.632;2022-10-31T04:25:05;9.53;;;2.47;;
23416;SDS011;11881;42.432;25.632;2022-10-31T04:27:31;10.27;;;2.43;;
23416;SDS011;11881;42.432;25.632;2022-10-31T04:29:57;7.43;;;2.10;;
23416;SDS011;11881;42.432;25.632;2022-10-31T04:32:22;5.93;;;2.03;;
23416;SDS011;11881;42.432;25.632;2022-10-31T04:34:48;8.30;;;1.97;;
23416;SDS011;11881;42.432;25.632;2022-10-31T04:37:13;5.97;;;2.20;;
23416;SDS011;11881;42.432;25.632;2022-10-31T04:39:38;8.87;;;2.10;;
23416;SDS011;11881;42.432;25.632;2022-10-31T04:42:04;10.13;;;2.30;;
23416;SDS011;11881;42.432;25.632;2022-10-31T04:44:29;8.47;;;2.17;;
23416;SDS011;11881;42.432;25.632;2022-10-31T04:46:54;5.47;;;2.00;;
23416;SDS011;11881;42.432;25.632;2022-10-31T04:49:20;6.97;;;1.80;;
23416;SDS011;11881;42.432;25.632;2022-10-31T04:51:45;27.23;;;3.20;;
23416;SDS011;11881;42.432;25.632;2022-10-31T04:54:11;21.47;;;2.33;;
23416;SDS011;11881;42.432;25.632;2022-10-31T04:56:36;17.53;;;2.77;;
23416;SDS011;11881;42.432;25.632;2022-10-31T04:59:01;20.77;;;2.90;;
23416;SDS011;11881;42.432;25.632;2022-10-31T05:01:27;18.20;;;2.23;;
23416;SDS011;11881;42.432;25.632;2022-10-31T05:03:52;20.43;;;3.33;;
23416;SDS011;11881;42.432;25.632;2022-10-31T05:06:18;9.83;;;3.40;;
23416;SDS011;11881;42.432;25.632;2022-10-31T05:08:43;19.83;;;3.37;;
23416;SDS011;11881;42.432;25.632;2022-10-31T05:11:09;11.37;;;3.17;;
23416;SDS011;11881;42.432;25.632;2022-10-31T05:13:34;16.00;;;2.80;;
23416;SDS011;11881;42.432;25.632;2022-10-31T05:15:59;21.20;;;2.77;;
23416;SDS011;11881;42.432;25.632;2022-10-31T05:18:25;24.07;;;3.37;;
23416;SDS011;11881;42.432;25.632;2022-10-31T05:20:50;20.67;;;3.13;;
23416;SDS011;11881;42.432;25.632;2022-10-31T05:23:16;20.37;;;3.10;;
23416;SDS011;11881;42.432;25.632;2022-10-31T05:25:41;17.97;;;3.27;;
23416;SDS011;11881;42.432;25.632;2022-10-31T05:28:07;11.77;;;3.07;;
23416;SDS011;11881;42.432;25.632;2022-10-31T05:30:33;17.70;;;2.90;;
23416;SDS011;11881;42.432;25.632;2022-10-31T05:32:59;13.47;;;3.00;;
23416;SDS011;11881;42.432;25.632;2022-10-31T05:35:26;12.80;;;2.63;;
23416;SDS011;11881;42.432;25.632;2022-10-31T05:37:54;18.73;;;3.10;;
23416;SDS011;11881;42.432;25.632;2022-10-31T05:40:19;10.60;;;2.80;;
23416;SDS011;11881;42.432;25.632;2022-10-31T05:42:46;18.30;;;3.17;;
23416;SDS011;11881;42.432;25.632;2022-10-31T05:45:16;15.80;;;2.90;;
23416;SDS011;11881;42.432;25.632;2022-10-31T05:47:42;12.40;;;2.80;;
23416;SDS011;11881;42.432;25.632;2022-10-31T05:50:15;20.70;;;3.17;;
23416;SDS011;11881;42.432;25.632;2022-10-31T05:52:40;32.60;;;4.60;;
23416;SDS011;11881;42.432;25.632;2022-10-31T05:55:05;30.03;;;3.73;;
23416;SDS011;11881;42.432;25.632;2022-10-31T05:57:31;23.43;;;3.90;;
23416;SDS011;11881;42.432;25.632;2022-10-31T05:59:57;27.07;;;4.30;;
23416;SDS011;11881;42.432;25.632;2022-10-31T06:02:22;16.63;;;3.40;;
23416;SDS011;11881;42.432;25.632;2022-10-31T06:04:48;42.67;;;4.97;;
23416;SDS011;11881;42.432;25.632;2022-10-31T06:07:13;39.27;;;5.23;;
23416;SDS011;11881;42.432;25.632;2022-10-31T06:09:39;31.70;;;4.57;;
23416;SDS011;11881;42.432;25.632;2022-10-31T06:12:04;64.43;;;6.43;;
23416;SDS011;11881;42.432;25.632;2022-10-31T06:14:30;43.07;;;6.63;;
23416;SDS011;11881;42.432;25.632;2022-10-31T06:16:55;46.53;;;12.73;;
23416;SDS011;11881;42.432;25.632;2022-10-31T06:19:21;26.70;;;6.13;;
23416;SDS011;11881;42.432;25.632;2022-10-31T06:21:46;39.77;;;4.87;;
23416;SDS011;11881;42.432;25.632;2022-10-31T06:24:11;49.83;;;8.53;;
23416;SDS011;11881;42.432;25.632;2022-10-31T06:26:37;42.73;;;8.27;;
23416;SDS011;11881;42.432;25.632;2022-10-31T06:29:02;46.77;;;9.77;;
23416;SDS011;11881;42.432;25.632;2022-10-31T06:31:28;58.10;;;10.23;;
23416;SDS011;11881;42.432;25.632;2022-10-31T06:33:53;43.10;;;11.23;;
23416;SDS011;11881;42.432;25.632;2022-10-31T06:36:19;56.10;;;11.13;;
23416;SDS011;11881;42.432;25.632;2022-10-31T06:38:44;51.27;;;10.60;;
23416;SDS011;11881;42.432;25.632;2022-10-31T06:41:09;49.43;;;10.40;;
23416;SDS011;11881;42.432;25.632;2022-10-31T06:43:35;51.30;;;10.57;;
23416;SDS011;11881;42.432;25.632;2022-10-31T06:46:03;54.80;;;13.63;;
23416;SDS011;11881;42.432;25.632;2022-10-31T06:48:30;50.47;;;12.37;;
23416;SDS011;11881;42.432;25.632;2022-10-31T06:50:59;41.30;;;11.23;;
23416;SDS011;11881;42.432;25.632;2022-10-31T06:53:25;51.27;;;10.97;;
23416;SDS011;11881;42.432;25.632;2022-10-31T06:55:51;36.90;;;10.47;;
23416;SDS011;11881;42.432;25.632;2022-10-31T06:58:17;44.97;;;10.23;;
23416;SDS011;11881;42.432;25.632;2022-10-31T07:00:42;39.07;;;9.43;;
23416;SDS011;11881;42.432;25.632;2022-10-31T07:03:11;41.90;;;9.10;;
23416;SDS011;11881;42.432;25.632;2022-10-31T07:05:38;43.37;;;10.07;;
23416;SDS011;11881;42.432;25.632;2022-10-31T07:08:05;42.37;;;9.73;;
23416;SDS011;11881;42.432;25.632;2022-10-31T07:10:32;50.10;;;9.57;;
23416;SDS011;11881;42.432;25.632;2022-10-31T07:12:59;27.87;;;8.40;;
23416;SDS011;11881;42.432;25.632;2022-10-31T07:15:29;34.60;;;8.37;;
23416;SDS011;11881;42.432;25.632;2022-10-31T07:18:01;47.80;;;7.87;;
23416;SDS011;11881;42.432;25.632;2022-10-31T07:20:28;32.00;;;7.67;;
23416;SDS011;11881;42.432;25.632;2022-10-31T07:22:54;50.67;;;9.00;;
23416;SDS011;11881;42.432;25.632;2022-10-31T07:25:20;48.27;;;8.17;;
23416;SDS011;11881;42.432;25.632;2022-10-31T07:27:45;23.93;;;7.90;;
23416;SDS011;11881;42.432;25.632;2022-10-31T07:30:11;36.23;;;7.27;;
23416;SDS011;11881;42.432;25.632;2022-10-31T07:32:47;30.67;;;6.80;;
23416;SDS011;11881;42.432;25.632;2022-10-31T07:35:14;23.63;;;6.37;;
23416;SDS011;11881;42.432;25.632;2022-10-31T07:37:41;23.30;;;5.07;;
23416;SDS011;11881;42.432;25.632;2022-10-31T07:40:07;22.30;;;6.07;;
23416;SDS011;11881;42.432;25.632;2022-10-31T07:42:41;16.30;;;6.83;;
23416;SDS011;11881;42.432;25.632;2022-10-31T07:45:09;23.37;;;6.70;;
23416;SDS011;11881;42.432;25.632;2022-10-31T07:50:08;29.10;;;8.50;;
23416;SDS011;11881;42.432;25.632;2022-10-31T07:52:35;29.13;;;8.50;;
23416;SDS011;11881;42.432;25.632;2022-10-31T07:55:01;31.87;;;7.67;;
23416;SDS011;11881;42.432;25.632;2022-10-31T07:57:26;30.60;;;8.00;;
23416;SDS011;11881;42.432;25.632;2022-10-31T07:59:52;30.73;;;8.73;;
23416;SDS011;11881;42.432;25.632;2022-10-31T08:02:17;27.20;;;8.10;;
23416;SDS011;11881;42.432;25.632;2022-10-31T08:04:43;37.13;;;9.43;;
23416;SDS011;11881;42.432;25.632;2022-10-31T08:07:08;32.17;;;12.67;;
23416;SDS011;11881;42.432;25.632;2022-10-31T08:09:34;24.03;;;9.60;;
23416;SDS011;11881;42.432;25.632;2022-10-31T08:11:59;26.17;;;10.10;;
23416;SDS011;11881;42.432;25.632;2022-10-31T08:14:24;28.97;;;10.07;;
23416;SDS011;11881;42.432;25.632;2022-10-31T08:16:50;26.37;;;9.93;;
23416;SDS011;11881;42.432;25.632;2022-10-31T08:19:17;34.27;;;11.03;;
23416;SDS011;11881;42.432;25.632;2022-10-31T08:21:42;26.57;;;10.40;;
23416;SDS011;11881;42.432;25.632;2022-10-31T08:24:07;31.57;;;10.10;;
23416;SDS011;11881;42.432;25.632;2022-10-31T08:26:33;32.50;;;10.30;;
23416;SDS011;11881;42.432;25.632;2022-10-31T08:28:58;35.50;;;11.17;;
23416;SDS011;11881;42.432;25.632;2022-10-31T08:31:24;32.17;;;10.93;;
23416;SDS011;11881;42.432;25.632;2022-10-31T08:33:52;23.97;;;10.43;;
23416;SDS011;11881;42.432;25.632;2022-10-31T08:36:18;27.47;;;8.83;;
23416;SDS011;11881;42.432;25.632;2022-10-31T08:38:44;19.53;;;8.70;;
23416;SDS011;11881;42.432;25.632;2022-10-31T08:41:11;25.13;;;5.53;;
23416;SDS011;11881;42.432;25.632;2022-10-31T08:43:37;15.43;;;4.00;;
23416;SDS011;11881;42.432;25.632;2022-10-31T08:46:02;11.97;;;3.77;;
23416;SDS011;11881;42.432;25.632;2022-10-31T08:48:28;10.30;;;3.70;;
23416;SDS011;11881;42.432;25.632;2022-10-31T08:50:55;10.80;;;4.00;;
23416;SDS011;11881;42.432;25.632;2022-10-31T08:53:23;9.20;;;3.83;;
23416;SDS011;11881;42.432;25.632;2022-10-31T08:55:48;11.00;;;4.07;;
23416;SDS011;11881;42.432;25.632;2022-10-31T08:58:15;10.07;;;3.37;;
23416;SDS011;11881;42.432;25.632;2022-10-31T09:00:42;12.37;;;3.27;;
23416;SDS011;11881;42.432;25.632;2022-10-31T09:03:15;12.20;;;3.90;;
23416;SDS011;11881;42.432;25.632;2022-10-31T09:05:42;16.73;;;4.00;;
23416;SDS011;11881;42.432;25.632;2022-10-31T09:08:08;8.33;;;3.50;;
23416;SDS011;11881;42.432;25.632;2022-10-31T09:10:35;11.77;;;3.40;;
23416;SDS011;11881;42.432;25.632;2022-10-31T09:13:04;13.50;;;3.40;;
23416;SDS011;11881;42.432;25.632;2022-10-31T09:15:32;20.00;;;3.63;;
23416;SDS011;11881;42.432;25.632;2022-10-31T09:17:59;15.17;;;3.90;;
23416;SDS011;11881;42.432;25.632;2022-10-31T09:20:25;17.10;;;4.27;;
23416;SDS011;11881;42.432;25.632;2022-10-31T09:23:04;14.63;;;3.90;;
23416;SDS011;11881;42.432;25.632;2022-10-31T09:25:40;10.20;;;3.33;;
23416;SDS011;11881;42.432;25.632;2022-10-31T09:28:07;12.30;;;3.50;;
23416;SDS011;11881;42.432;25.632;2022-10-31T09:30:35;7.93;;;3.40;;
23416;SDS011;11881;42.432;25.632;2022-10-31T09:33:05;7.57;;;3.00;;
23416;SDS011;11881;42.432;25.632;2022-10-31T09:35:35;6.63;;;3.13;;
23416;SDS011;11881;42.432;25.632;2022-10-31T09:38:05;5.97;;;3.30;;
23416;SDS011;11881;42.432;25.632;2022-10-31T09:40:44;8.07;;;3.20;;
23416;SDS011;11881;42.432;25.632;2022-10-31T09:46:21;7.97;;;3.03;;
23416;SDS011;11881;42.432;25.632;2022-10-31T09:51:33;7.57;;;3.37;;
23416;SDS011;11881;42.432;25.632;2022-10-31T09:54:10;7.93;;;3.30;;
23416;SDS011;11881;42.432;25.632;2022-10-31T09:56:40;7.60;;;3.47;;
23416;SDS011;11881;42.432;25.632;2022-10-31T09:59:10;12.63;;;3.60;;
23416;SDS011;11881;42.432;25.632;2022-10-31T10:07:27;4.73;;;2.53;;
23416;SDS011;11881;42.432;25.632;2022-10-31T10:09:49;8.60;;;3.00;;
23416;SDS011;11881;42.432;25.632;2022-10-31T10:12:18;5.40;;;2.97;;
23416;SDS011;11881;42.432;25.632;2022-10-31T10:15:00;3.80;;;2.80;;
23416;SDS011;11881;42.432;25.632;2022-10-31T10:17:45;16.17;;;3.70;;
23416;SDS011;11881;42.432;25.632;2022-10-31T10:20:16;10.73;;;3.57;;
23416;SDS011;11881;42.432;25.632;2022-10-31T10:25:38;9.23;;;2.87;;
23416;SDS011;11881;42.432;25.632;2022-10-31T10:30:58;16.40;;;3.87;;
23416;SDS011;11881;42.432;25.632;2022-10-31T10:33:42;7.70;;;2.80;;
23416;SDS011;11881;42.432;25.632;2022-10-31T10:39:16;7.00;;;2.43;;
23416;SDS011;11881;42.432;25.632;2022-10-31T10:41:47;7.57;;;2.90;;
23416;SDS011;11881;42.432;25.632;2022-10-31T10:44:31;8.13;;;2.43;;
23416;SDS011;11881;42.432;25.632;2022-10-31T10:47:16;12.93;;;2.67;;
23416;SDS011;11881;42.432;25.632;2022-10-31T10:50:01;5.37;;;2.37;;
23416;SDS011;11881;42.432;25.632;2022-10-31T10:58:04;10.33;;;3.43;;
23416;SDS011;11881;42.432;25.632;2022-10-31T11:00:41;11.47;;;3.00;;
23416;SDS011;11881;42.432;25.632;2022-10-31T11:03:11;8.80;;;2.27;;
23416;SDS011;11881;42.432;25.632;2022-10-31T11:08:23;16.67;;;3.47;;
23416;SDS011;11881;42.432;25.632;2022-10-31T11:11:00;14.77;;;2.43;;
23416;SDS011;11881;42.432;25.632;2022-10-31T11:13:32;11.27;;;2.70;;
23416;SDS011;11881;42.432;25.632;2022-10-31T11:16:07;9.70;;;2.97;;
23416;SDS011;11881;42.432;25.632;2022-10-31T11:18:39;7.20;;;2.77;;
23416;SDS011;11881;42.432;25.632;2022-10-31T11:21:17;6.10;;;2.70;;
23416;SDS011;11881;42.432;25.632;2022-10-31T11:23:49;8.63;;;2.60;;
23416;SDS011;11881;42.432;25.632;2022-10-31T11:26:18;9.23;;;2.60;;
23416;SDS011;11881;42.432;25.632;2022-10-31T11:28:55;12.67;;;2.47;;
23416;SDS011;11881;42.432;25.632;2022-10-31T11:31:21;10.10;;;2.50;;
23416;SDS011;11881;42.432;25.632;2022-10-31T11:33:48;8.43;;;2.60;;
23416;SDS011;11881;42.432;25.632;2022-10-31T11:38:42;6.20;;;2.20;;
23416;SDS011;11881;42.432;25.632;2022-10-31T11:41:13;13.70;;;2.97;;
23416;SDS011;11881;42.432;25.632;2022-10-31T11:43:45;8.00;;;2.53;;
23416;SDS011;11881;42.432;25.632;2022-10-31T11:46:18;13.43;;;2.77;;
23416;SDS011;11881;42.432;25.632;2022-10-31T11:48:48;3.47;;;1.87;;
23416;SDS011;11881;42.432;25.632;2022-10-31T11:51:29;6.67;;;2.03;;
23416;SDS011;11881;42.432;25.632;2022-10-31T11:53:57;5.27;;;2.50;;
23416;SDS011;11881;42.432;25.632;2022-10-31T11:56:24;8.57;;;2.73;;
23416;SDS011;11881;42.432;25.632;2022-10-31T11:58:56;12.17;;;3.20;;
23416;SDS011;11881;42.432;25.632;2022-10-31T12:01:25;8.13;;;2.70;;
23416;SDS011;11881;42.432;25.632;2022-10-31T12:03:59;6.67;;;2.70;;
23416;SDS011;11881;42.432;25.632;2022-10-31T12:06:49;7.17;;;2.33;;
23416;SDS011;11881;42.432;25.632;2022-10-31T12:17:08;10.30;;;2.23;;
23416;SDS011;11881;42.432;25.632;2022-10-31T12:19:39;10.93;;;2.60;;
23416;SDS011;11881;42.432;25.632;2022-10-31T12:30:22;9.90;;;2.57;;
23416;SDS011;11881;42.432;25.632;2022-10-31T12:35:52;9.93;;;2.50;;
23416;SDS011;11881;42.432;25.632;2022-10-31T12:46:39;6.67;;;1.97;;
23416;SDS011;11881;42.432;25.632;2022-10-31T12:49:12;6.10;;;2.00;;
23416;SDS011;11881;42.432;25.632;2022-10-31T12:57:29;6.77;;;1.30;;
23416;SDS011;11881;42.432;25.632;2022-10-31T13:00:00;4.53;;;1.50;;
23416;SDS011;11881;42.432;25.632;2022-10-31T13:02:32;5.03;;;1.40;;
23416;SDS011;11881;42.432;25.632;2022-10-31T13:05:27;4.50;;;1.63;;
23416;SDS011;11881;42.432;25.632;2022-10-31T13:07:57;9.63;;;1.60;;
23416;SDS011;11881;42.432;25.632;2022-10-31T13:10:29;17.63;;;2.27;;
23416;SDS011;11881;42.432;25.632;2022-10-31T13:13:10;13.10;;;2.20;;
23416;SDS011;11881;42.432;25.632;2022-10-31T13:15:58;11.77;;;2.10;;
23416;SDS011;11881;42.432;25.632;2022-10-31T13:21:08;12.03;;;1.77;;
23416;SDS011;11881;42.432;25.632;2022-10-31T13:23:38;8.30;;;2.30;;
23416;SDS011;11881;42.432;25.632;2022-10-31T13:29:08;13.90;;;2.20;;
23416;SDS011;11881;42.432;25.632;2022-10-31T13:31:34;12.93;;;2.30;;
23416;SDS011;11881;42.432;25.632;2022-10-31T13:34:01;10.00;;;2.13;;
23416;SDS011;11881;42.432;25.632;2022-10-31T13:36:36;16.87;;;2.60;;
23416;SDS011;11881;42.432;25.632;2022-10-31T13:39:30;8.47;;;2.40;;
23416;SDS011;11881;42.432;25.632;2022-10-31T13:42:24;7.70;;;2.40;;
23416;SDS011;11881;42.432;25.632;2022-10-31T13:44:54;11.03;;;2.50;;
23416;SDS011;11881;42.432;25.632;2022-10-31T13:47:21;9.10;;;2.27;;
23416;SDS011;11881;42.432;25.632;2022-10-31T13:49:49;10.67;;;2.63;;
23416;SDS011;11881;42.432;25.632;2022-10-31T13:52:22;14.13;;;2.43;;
23416;SDS011;11881;42.432;25.632;2022-10-31T13:54:50;7.27;;;2.30;;
23416;SDS011;11881;42.432;25.632;2022-10-31T13:59:52;13.27;;;2.47;;
23416;SDS011;11881;42.432;25.632;2022-10-31T14:02:27;9.80;;;2.43;;
23416;SDS011;11881;42.432;25.632;2022-10-31T14:04:56;15.27;;;3.03;;
23416;SDS011;11881;42.432;25.632;2022-10-31T14:07:25;9.30;;;2.40;;
23416;SDS011;11881;42.432;25.632;2022-10-31T14:14:57;6.93;;;2.57;;
23416;SDS011;11881;42.432;25.632;2022-10-31T14:17:27;11.70;;;2.80;;
23416;SDS011;11881;42.432;25.632;2022-10-31T14:20:19;18.07;;;3.03;;
23416;SDS011;11881;42.432;25.632;2022-10-31T14:22:46;15.73;;;3.20;;
23416;SDS011;11881;42.432;25.632;2022-10-31T14:25:31;19.03;;;3.40;;
23416;SDS011;11881;42.432;25.632;2022-10-31T14:27:58;12.80;;;2.90;;
23416;SDS011;11881;42.432;25.632;2022-10-31T14:30:51;16.83;;;3.40;;
23416;SDS011;11881;42.432;25.632;2022-10-31T14:33:19;15.20;;;2.87;;
23416;SDS011;11881;42.432;25.632;2022-10-31T14:38:30;11.97;;;3.33;;
23416;SDS011;11881;42.432;25.632;2022-10-31T14:41:09;16.40;;;3.93;;
23416;SDS011;11881;42.432;25.632;2022-10-31T14:43:44;28.13;;;4.47;;
23416;SDS011;11881;42.432;25.632;2022-10-31T14:52:04;44.97;;;5.27;;
23416;SDS011;11881;42.432;25.632;2022-10-31T14:54:33;41.10;;;5.43;;
23416;SDS011;11881;42.432;25.632;2022-10-31T14:57:04;31.23;;;5.57;;
23416;SDS011;11881;42.432;25.632;2022-10-31T14:59:41;28.03;;;4.20;;
23416;SDS011;11881;42.432;25.632;2022-10-31T15:02:20;24.57;;;4.10;;
23416;SDS011;11881;42.432;25.632;2022-10-31T15:04:50;15.57;;;2.93;;
23416;SDS011;11881;42.432;25.632;2022-10-31T15:09:58;9.33;;;3.00;;
23416;SDS011;11881;42.432;25.632;2022-10-31T15:14:52;17.10;;;3.00;;
23416;SDS011;11881;42.432;25.632;2022-10-31T15:17:19;10.93;;;2.30;;
23416;SDS011;11881;42.432;25.632;2022-10-31T15:19:45;23.23;;;3.63;;
23416;SDS011;11881;42.432;25.632;2022-10-31T15:22:13;24.73;;;3.33;;
23416;SDS011;11881;42.432;25.632;2022-10-31T15:24:41;18.53;;;3.40;;
23416;SDS011;11881;42.432;25.632;2022-10-31T15:27:10;18.67;;;3.50;;
23416;SDS011;11881;42.432;25.632;2022-10-31T15:29:46;31.23;;;5.07;;
23416;SDS011;11881;42.432;25.632;2022-10-31T15:32:20;44.50;;;5.13;;
23416;SDS011;11881;42.432;25.632;2022-10-31T15:34:50;44.40;;;5.20;;
23416;SDS011;11881;42.432;25.632;2022-10-31T15:37:18;39.67;;;3.93;;
23416;SDS011;11881;42.432;25.632;2022-10-31T15:39:45;31.63;;;4.70;;
23416;SDS011;11881;42.432;25.632;2022-10-31T15:45:05;21.80;;;4.70;;
23416;SDS011;11881;42.432;25.632;2022-10-31T15:53:01;31.23;;;4.40;;
23416;SDS011;11881;42.432;25.632;2022-10-31T15:55:29;19.70;;;4.00;;
23416;SDS011;11881;42.432;25.632;2022-10-31T15:57:58;31.37;;;4.13;;
23416;SDS011;11881;42.432;25.632;2022-10-31T16:00:38;16.30;;;4.57;;
23416;SDS011;11881;42.432;25.632;2022-10-31T16:05:38;37.20;;;4.67;;
23416;SDS011;11881;42.432;25.632;2022-10-31T16:10:55;32.07;;;5.10;;
23416;SDS011;11881;42.432;25.632;2022-10-31T16:13:33;21.53;;;4.63;;
23416;SDS011;11881;42.432;25.632;2022-10-31T16:16:02;29.23;;;4.80;;
23416;SDS011;11881;42.432;25.632;2022-10-31T16:18:36;25.83;;;4.93;;
23416;SDS011;11881;42.432;25.632;2022-10-31T16:21:03;41.40;;;5.33;;
23416;SDS011;11881;42.432;25.632;2022-10-31T16:23:29;37.37;;;5.83;;
23416;SDS011;11881;42.432;25.632;2022-10-31T16:25:55;32.07;;;5.63;;
23416;SDS011;11881;42.432;25.632;2022-10-31T16:28:22;24.87;;;6.20;;
23416;SDS011;11881;42.432;25.632;2022-10-31T16:30:50;41.93;;;6.23;;
23416;SDS011;11881;42.432;25.632;2022-10-31T16:35:53;52.43;;;7.20;;
23416;SDS011;11881;42.432;25.632;2022-10-31T16:38:22;34.13;;;7.27;;
23416;SDS011;11881;42.432;25.632;2022-10-31T16:40:48;56.27;;;7.50;;
23416;SDS011;11881;42.432;25.632;2022-10-31T16:43:15;44.23;;;7.20;;
23416;SDS011;11881;42.432;25.632;2022-10-31T16:45:46;41.07;;;13.33;;
23416;SDS011;11881;42.432;25.632;2022-10-31T16:48:14;57.27;;;10.50;;
23416;SDS011;11881;42.432;25.632;2022-10-31T16:50:42;41.57;;;8.57;;
23416;SDS011;11881;42.432;25.632;2022-10-31T16:53:09;43.83;;;8.20;;
23416;SDS011;11881;42.432;25.632;2022-10-31T16:55:41;56.57;;;8.77;;